createdAt,value
2023-05-07T00:03:47.691Z,3.78
2023-05-07T00:06:53.199Z,4.53
2023-05-07T00:09:56.857Z,3.70
2023-05-07T00:13:01.873Z,4.35
2023-05-07T00:16:05.622Z,4.00
2023-05-07T00:19:11.701Z,4.32
2023-05-07T00:22:19.379Z,2.95
2023-05-07T00:25:22.962Z,4.13
2023-05-07T00:28:47.153Z,4.05
2023-05-07T00:31:52.328Z,3.65
2023-05-07T00:34:56.756Z,3.40
2023-05-07T00:38:02.420Z,3.47
2023-05-07T00:41:08.558Z,3.85
2023-05-07T00:44:14.211Z,3.72
2023-05-07T00:47:19.535Z,3.72
2023-05-07T00:50:24.177Z,3.83
2023-05-07T00:53:29.599Z,3.40
2023-05-07T00:56:34.184Z,3.63
2023-05-07T00:59:38.408Z,3.90
2023-05-07T01:02:42.929Z,4.15
2023-05-07T01:05:49.702Z,3.38
2023-05-07T01:09:00.633Z,3.33
2023-05-07T01:12:04.464Z,3.28
2023-05-07T01:15:09.027Z,3.42
2023-05-07T01:18:12.996Z,3.20
2023-05-07T01:21:21.450Z,3.22
2023-05-07T01:24:30.721Z,3.17
2023-05-07T01:27:36.307Z,2.95
2023-05-07T01:30:45.318Z,3.10
2023-05-07T01:33:51.649Z,4.05
2023-05-07T01:36:56.282Z,3.58
2023-05-07T01:40:05.683Z,3.42
2023-05-07T01:43:09.784Z,4.00
2023-05-07T01:46:15.603Z,3.55
2023-05-07T01:49:21.549Z,3.72
2023-05-07T01:52:26.065Z,4.07
2023-05-07T01:55:46.153Z,3.95
2023-05-07T01:59:39.784Z,4.22
2023-05-07T02:03:16.101Z,3.15
2023-05-07T02:06:29.491Z,3.88
2023-05-07T02:09:38.886Z,4.22
2023-05-07T02:12:46.510Z,3.60
2023-05-07T02:15:51.777Z,4.00
2023-05-07T02:18:57.626Z,3.97
2023-05-07T02:22:02.315Z,3.95
2023-05-07T02:25:08.467Z,3.75
2023-05-07T02:28:16.257Z,3.83
2023-05-07T02:31:29.618Z,3.95
2023-05-07T02:34:33.293Z,4.40
2023-05-07T02:37:38.565Z,4.40
2023-05-07T02:40:45.735Z,4.32
2023-05-07T02:43:51.561Z,3.38
2023-05-07T02:46:56.328Z,4.07
2023-05-07T02:50:00.334Z,4.05
2023-05-07T02:53:05.162Z,3.85
2023-05-07T02:56:14.132Z,3.88
2023-05-07T02:59:18.998Z,3.10
2023-05-07T03:02:22.475Z,3.17
2023-05-07T03:05:26.812Z,4.43
2023-05-07T03:08:31.431Z,4.13
2023-05-07T03:11:34.868Z,3.47
2023-05-07T03:14:39.888Z,4.03
2023-05-07T03:17:45.599Z,3.75
2023-05-07T03:20:51.341Z,3.58
2023-05-07T03:23:55.755Z,3.35
2023-05-07T03:27:00.230Z,3.42
2023-05-07T03:30:06.105Z,3.33
2023-05-07T03:33:10.523Z,3.70
2023-05-07T03:36:15.311Z,3.60
2023-05-07T03:39:20.573Z,4.53
2023-05-07T03:42:24.827Z,4.10
2023-05-07T03:45:31.105Z,3.55
2023-05-07T03:48:45.524Z,4.30
2023-05-07T03:51:52.105Z,3.95
2023-05-07T03:54:56.494Z,3.58
2023-05-07T03:58:00.053Z,3.58
2023-05-07T04:01:08.676Z,3.90
2023-05-07T04:04:13.014Z,3.33
2023-05-07T04:07:17.255Z,3.55
2023-05-07T04:10:30.728Z,3.35
2023-05-07T04:13:37.394Z,3.20
2023-05-07T04:16:44.818Z,3.65
2023-05-07T04:19:50.236Z,3.25
2023-05-07T04:22:56.460Z,3.13
2023-05-07T04:26:04.299Z,3.22
2023-05-07T04:29:15.445Z,3.95
2023-05-07T04:32:20.737Z,3.47
2023-05-07T04:35:24.300Z,3.40
2023-05-07T04:38:31.139Z,3.08
2023-05-07T04:41:37.261Z,3.17
2023-05-07T04:44:42.473Z,3.20
2023-05-07T04:47:48.231Z,3.22
2023-05-07T04:50:55.513Z,2.85
2023-05-07T04:54:00.842Z,3.15
2023-05-07T04:57:07.853Z,3.42
2023-05-07T05:00:15.321Z,3.15
2023-05-07T05:03:23.018Z,3.42
2023-05-07T05:06:27.503Z,3.45
2023-05-07T05:09:31.643Z,3.00
2023-05-07T05:12:35.898Z,2.83
2023-05-07T05:15:39.469Z,2.97
2023-05-07T05:18:44.746Z,3.65
2023-05-07T05:21:51.082Z,3.13
2023-05-07T05:24:55.317Z,2.92
2023-05-07T05:27:59.336Z,2.90
2023-05-07T05:31:03.490Z,3.53
2023-05-07T05:34:12.588Z,2.83
2023-05-07T05:37:22.970Z,2.53
2023-05-07T05:40:28.188Z,2.63
2023-05-07T05:43:32.418Z,3.30
2023-05-07T05:46:38.152Z,2.90
2023-05-07T05:49:44.448Z,2.78
2023-05-07T05:52:52.983Z,2.15
2023-05-07T05:55:58.862Z,2.28
2023-05-07T05:59:02.667Z,3.00
2023-05-07T06:02:06.980Z,2.95
2023-05-07T06:05:15.011Z,3.20
2023-05-07T06:08:19.546Z,2.53
2023-05-07T06:11:23.446Z,2.45
2023-05-07T06:14:29.364Z,3.10
2023-05-07T06:17:36.732Z,2.60
2023-05-07T06:20:41.755Z,2.33
2023-05-07T06:23:53.128Z,2.10
2023-05-07T06:27:00.986Z,2.33
2023-05-07T06:30:06.467Z,2.95
2023-05-07T06:33:17.479Z,2.88
2023-05-07T06:36:23.935Z,2.50
2023-05-07T06:39:27.924Z,2.17
2023-05-07T06:42:32.964Z,2.75
2023-05-07T06:45:54.192Z,2.35
2023-05-07T06:49:01.397Z,2.53
2023-05-07T06:52:07.939Z,2.70
2023-05-07T06:55:12.976Z,2.20
2023-05-07T06:58:16.676Z,2.38
2023-05-07T07:01:20.937Z,2.80
2023-05-07T07:04:25.301Z,2.00
2023-05-07T07:07:39.517Z,2.75
2023-05-07T07:10:44.026Z,2.38
2023-05-07T07:13:52.817Z,2.75
2023-05-07T07:16:57.180Z,2.30
2023-05-07T07:20:02.737Z,2.85
2023-05-07T07:23:09.290Z,2.90
2023-05-07T07:26:12.940Z,2.25
2023-05-07T07:29:20.686Z,2.20
2023-05-07T07:32:30.778Z,2.50
2023-05-07T07:35:34.969Z,1.85
2023-05-07T07:38:42.593Z,2.22
2023-05-07T07:41:49.792Z,2.67
2023-05-07T07:45:01.190Z,2.42
2023-05-07T07:48:11.684Z,2.10
2023-05-07T07:51:16.378Z,2.70
2023-05-07T07:54:22.450Z,2.10
2023-05-07T07:57:28.071Z,2.08
2023-05-07T08:00:32.803Z,2.17
2023-05-07T08:03:41.266Z,2.35
2023-05-07T08:06:45.648Z,2.45
2023-05-07T08:09:51.456Z,2.03
2023-05-07T08:12:59.486Z,2.45
2023-05-07T08:16:04.339Z,2.47
2023-05-07T08:19:08.359Z,2.22
2023-05-07T08:22:13.148Z,2.10
2023-05-07T08:25:18.070Z,2.30
2023-05-07T08:28:26.166Z,2.42
2023-05-07T08:31:30.868Z,2.10
2023-05-07T08:34:40.252Z,2.25
2023-05-07T08:37:49.091Z,2.67
2023-05-07T08:40:56.697Z,2.13
2023-05-07T08:44:02.039Z,2.25
2023-05-07T08:47:09.796Z,2.05
2023-05-07T08:50:17.580Z,2.40
2023-05-07T08:53:22.868Z,2.30
2023-05-07T08:56:40.625Z,2.63
2023-05-07T08:59:45.127Z,2.40
2023-05-07T09:02:49.571Z,2.35
2023-05-07T09:05:57.715Z,2.60
2023-05-07T09:09:06.426Z,2.08
2023-05-07T09:12:14.539Z,2.45
2023-05-07T09:15:18.416Z,2.10
2023-05-07T09:18:24.063Z,2.15
2023-05-07T09:21:28.293Z,2.40
2023-05-07T09:24:39.132Z,2.25
2023-05-07T09:27:54.126Z,2.00
2023-05-07T09:30:59.378Z,2.38
2023-05-07T09:34:04.221Z,2.33
2023-05-07T09:37:10.730Z,2.47
2023-05-07T09:40:26.209Z,1.90
2023-05-07T09:43:35.070Z,2.25
2023-05-07T09:46:41.592Z,1.95
2023-05-07T09:49:58.850Z,2.40
2023-05-07T09:53:03.062Z,2.15
2023-05-07T09:56:08.092Z,2.03
2023-05-07T09:59:17.152Z,2.03
2023-05-07T10:02:25.196Z,1.90
2023-05-07T10:05:33.616Z,2.10
2023-05-07T10:08:47.790Z,2.05
2023-05-07T10:12:01.335Z,1.95
2023-05-07T10:15:09.496Z,1.73
2023-05-07T10:18:14.974Z,1.95
2023-05-07T10:21:22.098Z,1.67
2023-05-07T10:24:30.932Z,1.90
2023-05-07T10:27:39.578Z,2.35
2023-05-07T10:30:50.350Z,2.08
2023-05-07T10:33:58.836Z,2.20
2023-05-07T10:37:03.899Z,2.00
2023-05-07T10:40:09.907Z,2.30
2023-05-07T10:43:18.055Z,1.50
2023-05-07T10:46:29.690Z,1.63
2023-05-07T10:50:11.358Z,1.48
2023-05-07T10:53:38.369Z,1.88
2023-05-07T10:56:48.669Z,1.75
2023-05-07T11:00:01.637Z,1.70
2023-05-07T11:03:11.502Z,1.63
2023-05-07T11:06:42.255Z,1.60
2023-05-07T11:09:59.499Z,1.50
2023-05-07T11:13:38.933Z,1.38
2023-05-07T11:16:48.003Z,1.65
2023-05-07T11:20:02.495Z,1.48
2023-05-07T11:23:31.615Z,1.70
2023-05-07T11:26:59.550Z,1.30
2023-05-07T11:30:05.521Z,1.40
2023-05-07T11:33:13.174Z,1.27
2023-05-07T11:36:21.695Z,1.30
2023-05-07T11:39:31.401Z,1.05
2023-05-07T11:42:39.755Z,1.30
2023-05-07T11:45:43.447Z,1.25
2023-05-07T11:48:50.554Z,1.20
2023-05-07T11:51:57.183Z,1.40
2023-05-07T11:55:06.033Z,1.50
2023-05-07T11:58:12.106Z,1.33
2023-05-07T12:01:18.071Z,1.17
2023-05-07T12:04:24.348Z,1.52
2023-05-07T12:07:31.801Z,1.00
2023-05-07T12:10:36.505Z,1.05
2023-05-07T12:13:40.636Z,1.48
2023-05-07T12:16:46.249Z,1.55
2023-05-07T12:19:50.661Z,1.20
2023-05-07T12:22:58.337Z,1.35
2023-05-07T12:26:03.516Z,1.25
2023-05-07T12:29:10.421Z,1.50
2023-05-07T12:32:17.166Z,1.73
2023-05-07T12:35:28.696Z,1.17
2023-05-07T12:38:37.985Z,1.23
2023-05-07T12:41:57.093Z,1.20
2023-05-07T12:45:00.519Z,1.45
2023-05-07T12:48:04.975Z,1.27
2023-05-07T12:51:11.378Z,1.27
2023-05-07T12:54:32.341Z,1.52
2023-05-07T12:57:41.173Z,1.48
2023-05-07T13:00:44.908Z,0.80
2023-05-07T13:03:51.737Z,1.10
2023-05-07T13:06:55.715Z,1.20
2023-05-07T13:10:00.967Z,1.30
2023-05-07T13:13:05.900Z,0.98
2023-05-07T13:16:12.663Z,0.98
2023-05-07T13:19:16.419Z,1.35
2023-05-07T13:22:20.568Z,1.30
2023-05-07T13:25:28.833Z,1.40
2023-05-07T13:28:32.962Z,1.50
2023-05-07T13:31:37.494Z,1.10
2023-05-07T13:34:41.190Z,1.00
2023-05-07T13:37:44.788Z,1.05
2023-05-07T13:40:49.760Z,1.00
2023-05-07T13:43:54.108Z,1.58
2023-05-07T13:47:01.594Z,1.35
2023-05-07T13:50:12.585Z,1.20
2023-05-07T13:53:19.086Z,1.40
2023-05-07T13:56:24.248Z,1.15
2023-05-07T13:59:28.989Z,1.20
2023-05-07T14:02:33.106Z,1.40
2023-05-07T14:05:37.798Z,1.20
2023-05-07T14:08:43.004Z,1.13
2023-05-07T14:11:52.377Z,1.40
2023-05-07T14:14:55.933Z,1.30
2023-05-07T14:18:00.832Z,1.48
2023-05-07T14:21:12.208Z,1.38
2023-05-07T14:24:24.230Z,1.48
2023-05-07T14:27:36.177Z,1.40
2023-05-07T14:30:40.396Z,1.02
2023-05-07T14:33:46.424Z,1.15
2023-05-07T14:36:51.368Z,1.27
2023-05-07T14:39:54.951Z,1.15
2023-05-07T14:43:03.130Z,1.13
2023-05-07T14:46:12.903Z,1.42
2023-05-07T14:49:18.261Z,1.15
2023-05-07T14:52:24.184Z,1.10
2023-05-07T14:55:28.027Z,1.20
2023-05-07T14:58:33.163Z,0.93
2023-05-07T15:01:38.545Z,1.20
2023-05-07T15:04:46.727Z,1.10
2023-05-07T15:07:50.747Z,1.13
2023-05-07T15:10:54.284Z,1.30
2023-05-07T15:13:59.882Z,1.25
2023-05-07T15:17:03.605Z,1.30
2023-05-07T15:20:09.138Z,1.05
2023-05-07T15:23:14.991Z,0.50
2023-05-07T15:26:22.650Z,1.10
2023-05-07T15:29:28.349Z,1.00
2023-05-07T15:32:34.299Z,1.25
2023-05-07T15:35:38.993Z,1.20
2023-05-07T15:38:43.776Z,0.95
2023-05-07T15:41:47.386Z,1.10
2023-05-07T15:44:54.626Z,1.27
2023-05-07T15:47:58.259Z,1.40
2023-05-07T15:51:03.237Z,1.23
2023-05-07T15:54:07.138Z,1.40
2023-05-07T15:57:11.685Z,0.93
2023-05-07T16:00:19.141Z,1.30
2023-05-07T16:03:23.302Z,1.10
2023-05-07T16:06:28.031Z,1.00
2023-05-07T16:09:33.819Z,1.30
2023-05-07T16:12:38.245Z,1.20
2023-05-07T16:15:45.352Z,1.10
2023-05-07T16:18:49.895Z,1.10
2023-05-07T16:21:55.611Z,0.95
2023-05-07T16:25:02.504Z,1.27
2023-05-07T16:28:06.726Z,1.30
2023-05-07T16:31:12.329Z,1.05
2023-05-07T16:34:18.119Z,1.27
2023-05-07T16:37:22.879Z,1.15
2023-05-07T16:40:26.636Z,1.20
2023-05-07T16:43:30.368Z,1.27
2023-05-07T16:46:35.405Z,1.10
2023-05-07T16:49:39.060Z,1.30
2023-05-07T16:52:42.659Z,1.40
2023-05-07T16:55:48.532Z,1.95
2023-05-07T16:58:52.080Z,2.13
2023-05-07T17:01:59.081Z,2.67
2023-05-07T17:05:07.441Z,1.55
2023-05-07T17:08:14.437Z,1.40
2023-05-07T17:11:19.869Z,1.27
2023-05-07T17:14:23.856Z,1.30
2023-05-07T17:17:30.182Z,1.50
2023-05-07T17:20:36.343Z,1.10
2023-05-07T17:23:40.046Z,1.50
2023-05-07T17:26:44.914Z,1.20
2023-05-07T17:29:57.467Z,1.38
2023-05-07T17:33:17.230Z,1.30
2023-05-07T17:36:25.043Z,1.52
2023-05-07T17:39:28.835Z,1.60
2023-05-07T17:42:33.567Z,1.60
2023-05-07T17:45:38.207Z,2.20
2023-05-07T17:48:43.660Z,1.65
2023-05-07T17:51:54.529Z,1.85
2023-05-07T17:55:00.609Z,1.80
2023-05-07T17:58:04.524Z,1.80
2023-05-07T18:01:10.776Z,1.65
2023-05-07T18:04:16.721Z,1.83
2023-05-07T18:07:21.183Z,1.50
2023-05-07T18:10:28.633Z,1.05
2023-05-07T18:13:32.215Z,1.20
2023-05-07T18:16:37.907Z,1.13
2023-05-07T18:19:44.183Z,1.38
2023-05-07T18:22:47.998Z,1.35
2023-05-07T18:25:53.085Z,1.55
2023-05-07T18:28:58.751Z,1.35
2023-05-07T18:32:03.879Z,1.20
2023-05-07T18:35:09.869Z,1.27
2023-05-07T18:38:16.849Z,1.10
2023-05-07T18:41:21.211Z,1.20
2023-05-07T18:44:25.545Z,1.33
2023-05-07T18:47:30.439Z,1.40
2023-05-07T18:50:39.366Z,1.60
2023-05-07T18:53:44.012Z,1.25
2023-05-07T18:56:47.828Z,1.45
2023-05-07T18:59:54.513Z,1.40
2023-05-07T19:02:58.849Z,1.10
2023-05-07T19:06:06.006Z,1.27
2023-05-07T19:09:11.180Z,1.77
2023-05-07T19:12:15.738Z,1.73
2023-05-07T19:15:19.462Z,1.67
2023-05-07T19:18:24.008Z,1.77
2023-05-07T19:21:29.488Z,1.35
2023-05-07T19:24:33.275Z,1.67
2023-05-07T19:27:38.853Z,1.63
2023-05-07T19:30:42.710Z,1.45
2023-05-07T19:33:46.254Z,1.40
2023-05-07T19:36:51.392Z,1.58
2023-05-07T19:39:55.793Z,1.60
2023-05-07T19:43:00.385Z,1.50
2023-05-07T19:46:04.244Z,1.70
2023-05-07T19:49:11.191Z,1.77
2023-05-07T19:52:17.616Z,1.88
2023-05-07T19:55:21.563Z,1.83
2023-05-07T19:58:31.119Z,1.80
2023-05-07T20:01:39.033Z,1.90
2023-05-07T20:04:44.891Z,2.10
2023-05-07T20:07:50.736Z,1.70
2023-05-07T20:10:55.246Z,1.63
2023-05-07T20:14:01.172Z,1.85
2023-05-07T20:17:05.234Z,2.10
2023-05-07T20:20:12.449Z,1.80
2023-05-07T20:23:17.871Z,1.65
2023-05-07T20:26:22.584Z,1.95
2023-05-07T20:29:27.292Z,2.10
2023-05-07T20:32:32.829Z,1.73
2023-05-07T20:35:37.185Z,1.77
2023-05-07T20:38:42.157Z,2.05
2023-05-07T20:41:47.261Z,2.00
2023-05-07T20:44:52.121Z,2.00
2023-05-07T20:47:56.094Z,2.28
2023-05-07T20:51:00.173Z,2.38
2023-05-07T20:54:05.222Z,1.92
2023-05-07T20:57:09.290Z,2.45
2023-05-07T21:00:13.322Z,2.22
2023-05-07T21:03:16.853Z,3.28
2023-05-07T21:06:20.446Z,3.60
2023-05-07T21:09:26.748Z,2.63
2023-05-07T21:12:30.396Z,2.75
2023-05-07T21:15:34.728Z,1.98
2023-05-07T21:18:38.759Z,1.90
2023-05-07T21:21:43.396Z,1.70
2023-05-07T21:24:49.353Z,2.00
2023-05-07T21:27:53.323Z,2.00
2023-05-07T21:30:56.883Z,2.03
2023-05-07T21:34:00.249Z,1.95
2023-05-07T21:37:05.439Z,1.92
2023-05-07T21:40:11.842Z,1.60
2023-05-07T21:43:16.281Z,1.65
2023-05-07T21:46:20.326Z,1.15
2023-05-07T21:49:24.102Z,1.90
2023-05-07T21:52:28.240Z,1.23
2023-05-07T21:55:33.284Z,1.45
2023-05-07T21:58:36.896Z,1.30
2023-05-07T22:01:40.967Z,1.10
2023-05-07T22:04:45.550Z,1.45
2023-05-07T22:07:49.008Z,1.33
2023-05-07T22:10:54.324Z,1.40
2023-05-07T22:13:57.784Z,1.40
2023-05-07T22:17:02.073Z,1.70
2023-05-07T22:20:09.461Z,1.10
2023-05-07T22:23:14.238Z,1.25
2023-05-07T22:26:20.833Z,1.23
2023-05-07T22:29:24.635Z,1.30
2023-05-07T22:32:28.365Z,1.30
2023-05-07T22:35:32.077Z,1.58
2023-05-07T22:38:35.566Z,1.13
2023-05-07T22:41:41.020Z,1.35
2023-05-07T22:44:45.578Z,1.67
2023-05-07T22:47:49.295Z,1.33
2023-05-07T22:50:53.892Z,1.50
2023-05-07T22:53:57.851Z,1.42
2023-05-07T22:57:03.626Z,1.08
2023-05-07T23:00:10.557Z,1.40
2023-05-07T23:03:15.000Z,1.25
2023-05-07T23:06:19.022Z,1.30
2023-05-07T23:09:22.783Z,1.38
2023-05-07T23:12:28.451Z,1.50
2023-05-07T23:15:33.321Z,1.75
2023-05-07T23:18:36.711Z,1.27
2023-05-07T23:21:40.028Z,1.10
2023-05-07T23:24:44.594Z,1.10
2023-05-07T23:27:50.208Z,1.50
2023-05-07T23:30:53.800Z,1.30
2023-05-07T23:33:57.390Z,1.40
2023-05-07T23:37:03.028Z,1.40
2023-05-07T23:40:07.465Z,0.98
2023-05-07T23:43:12.746Z,1.42
2023-05-07T23:46:16.393Z,1.30
2023-05-07T23:49:19.886Z,1.23
2023-05-07T23:52:23.799Z,1.25
2023-05-07T23:55:28.797Z,1.15
2023-05-07T23:58:34.597Z,1.30
